Time;durP1;ratioP1;P1;durP2;ratioP2;P2;SDS_P1;SDS_P2;PMS_P1;PMS_P2;Temp;Humidity;BMP_temperature;BMP_pressure;BME280_temperature;BME280_humidity;BME280_pressure;Samples;Min_cycle;Max_cycle;Signal;HPM_P1;HPM_P2
2021/10/07 00:01:53;;;;;;;0.00;0.00;;;;;;;10.73;61.96;99699.44;4919081;29;20380;-82
2021/10/07 00:04:20;;;;;;;0.00;0.00;;;;;;;10.68;62.31;99700.22;4918393;29;20179;-82
2021/10/07 00:06:45;;;;;;;0.00;0.00;;;;;;;10.65;62.56;99702.63;4918927;29;20055;-77
2021/10/07 00:09:10;;;;;;;0.10;0.10;;;;;;;10.62;62.27;99701.28;4919345;29;20070;-79
2021/10/07 00:11:36;;;;;;;0.00;0.00;;;;;;;10.57;62.82;99698.56;4918614;29;20032;-82
2021/10/07 00:14:03;;;;;;;0.00;0.00;;;;;;;10.56;62.85;99692.41;4900430;29;20391;-76
2021/10/07 00:16:29;;;;;;;0.10;0.10;;;;;;;10.54;63.01;99689.19;4933841;29;20431;-76
2021/10/07 00:18:54;;;;;;;0.00;0.00;;;;;;;10.51;62.97;99686.22;4935264;29;20039;-76
2021/10/07 00:21:20;;;;;;;0.00;0.00;;;;;;;10.49;62.93;99681.13;4936287;29;20082;-76
2021/10/07 00:24:31;;;;;;;0.00;0.00;;;;;;;10.48;62.83;99682.19;4917528;29;20035;-76
2021/10/07 00:26:32;;;;;;;0.00;0.00;;;;;;;10.46;63.04;99684.34;4922031;29;20415;-78
2021/10/07 00:29:04;;;;;;;0.00;0.00;;;;;;;10.44;63.00;99683.78;4918636;29;20036;-77
2021/10/07 00:31:34;;;;;;;0.00;0.00;;;;;;;10.43;62.92;99681.38;4932374;29;20032;-77
2021/10/07 00:39:09;;;;;;;0.00;0.00;;;;;;;10.35;63.26;99659.38;4935612;29;20035;-76
2021/10/07 00:41:42;;;;;;;0.00;0.00;;;;;;;10.34;63.48;99654.28;4935787;29;20024;-77
2021/10/07 00:44:10;;;;;;;0.00;0.00;;;;;;;10.31;63.87;99650.25;4934985;29;20039;-77
2021/10/07 00:46:51;;;;;;;0.00;0.00;;;;;;;10.26;63.83;99652.91;4935891;29;20034;-78
2021/10/07 00:49:18;;;;;;;0.00;0.00;;;;;;;10.23;63.61;99659.56;4918418;29;20067;-82
2021/10/07 00:51:44;;;;;;;0.00;0.00;;;;;;;10.21;64.12;99647.53;4918172;29;20034;-77
2021/10/07 00:54:11;;;;;;;0.00;0.00;;;;;;;10.17;64.24;99649.91;4935431;29;20118;-77
2021/10/07 00:56:37;;;;;;;0.00;0.00;;;;;;;10.16;64.55;99650.97;4935011;29;20042;-76
2021/10/07 00:59:02;;;;;;;0.00;0.00;;;;;;;10.15;64.51;99661.94;4934839;29;20040;-77
2021/10/07 01:01:28;;;;;;;0.00;0.00;;;;;;;10.14;64.62;99660.31;4918119;29;20118;-77
2021/10/07 01:03:53;;;;;;;0.00;0.00;;;;;;;10.11;64.86;99661.66;4917903;29;20027;-77
2021/10/07 01:06:19;;;;;;;0.00;0.00;;;;;;;10.10;64.90;99666.16;4917777;29;20058;-79
2021/10/07 01:08:45;;;;;;;0.00;0.00;;;;;;;10.02;64.67;99672.00;4917370;29;20035;-75
2021/10/07 01:11:10;;;;;;;0.00;0.00;;;;;;;10.02;64.87;99658.66;4935010;29;20020;-75
2021/10/07 01:13:40;;;;;;;0.00;0.00;;;;;;;10.02;64.96;99673.88;4934889;29;20031;-75
2021/10/07 01:16:05;;;;;;;0.00;0.00;;;;;;;10.03;65.40;99660.28;4917056;29;20115;-77
2021/10/07 01:18:31;;;;;;;0.00;0.00;;;;;;;10.03;65.72;99662.13;4917050;29;20039;-76
2021/10/07 01:20:56;;;;;;;0.00;0.00;;;;;;;10.00;65.92;99649.28;4934801;29;20034;-78
2021/10/07 01:23:22;;;;;;;0.00;0.00;;;;;;;10.01;65.81;99635.66;4917613;29;20384;-79
2021/10/07 01:25:47;;;;;;;0.00;0.00;;;;;;;10.01;66.31;99641.00;4917396;29;20565;-77
2021/10/07 01:28:13;;;;;;;0.00;0.00;;;;;;;10.00;66.09;99636.72;4917506;29;20027;-76
2021/10/07 01:30:38;;;;;;;0.00;0.00;;;;;;;10.02;66.10;99644.47;4917646;29;20031;-77
2021/10/07 01:33:04;;;;;;;0.00;0.00;;;;;;;10.04;66.45;99642.34;4917372;29;20483;-77
2021/10/07 01:35:30;;;;;;;0.00;0.00;;;;;;;10.03;66.64;99636.22;4917270;29;20031;-77
2021/10/07 01:37:56;;;;;;;0.00;0.00;;;;;;;10.07;66.38;99636.47;4915952;29;20402;-77
2021/10/07 01:40:21;;;;;;;0.00;0.00;;;;;;;10.09;66.31;99629.00;4917413;29;20027;-89
2021/10/07 01:42:47;;;;;;;0.00;0.00;;;;;;;10.09;65.59;99632.50;4917421;29;20071;-85
2021/10/07 01:45:13;;;;;;;0.00;0.00;;;;;;;10.12;65.30;99636.53;4917194;29;20031;-77
2021/10/07 01:47:39;;;;;;;0.00;0.00;;;;;;;10.10;65.47;99628.75;4933170;29;20166;-77
2021/10/07 01:50:08;;;;;;;0.10;0.10;;;;;;;10.13;65.12;99630.13;4933858;29;20126;-75
2021/10/07 01:52:33;;;;;;;0.00;0.00;;;;;;;10.16;65.13;99621.56;4931295;29;20053;-77
2021/10/07 01:54:59;;;;;;;0.00;0.00;;;;;;;10.18;65.12;99613.28;4934338;29;20499;-76
2021/10/07 01:57:24;;;;;;;0.00;0.00;;;;;;;10.15;65.61;99616.50;4933442;29;20024;-75
2021/10/07 01:59:50;;;;;;;0.00;0.00;;;;;;;10.14;66.05;99620.22;4933518;29;20055;-76
2021/10/07 02:02:15;;;;;;;0.00;0.00;;;;;;;10.17;65.57;99625.06;4916824;29;20118;-76
2021/10/07 02:04:41;;;;;;;0.00;0.00;;;;;;;10.11;65.87;99626.91;4933776;29;20028;-76
2021/10/07 02:07:06;;;;;;;0.08;0.08;;;;;;;10.09;65.83;99627.16;4933943;29;20027;-76
2021/10/07 02:09:31;;;;;;;0.00;0.00;;;;;;;10.09;66.32;99637.84;4916390;29;20102;-75
2021/10/07 02:11:57;;;;;;;0.00;0.00;;;;;;;10.08;66.07;99635.41;4933897;29;20154;-75
2021/10/07 02:14:24;;;;;;;0.00;0.00;;;;;;;10.01;66.44;99630.31;4933921;29;20039;-76
2021/10/07 02:16:49;;;;;;;0.00;0.00;;;;;;;10.03;66.24;99636.22;4933743;29;20028;-75
2021/10/07 02:19:15;;;;;;;0.00;0.00;;;;;;;10.00;66.44;99633.25;4934312;29;20118;-76
2021/10/07 02:21:40;;;;;;;0.00;0.00;;;;;;;9.99;66.85;99629.75;4934106;29;20057;-76
2021/10/07 02:24:06;;;;;;;0.00;0.00;;;;;;;9.96;66.78;99626.78;4934058;29;20063;-76
2021/10/07 02:26:31;;;;;;;0.00;0.00;;;;;;;9.98;66.75;99617.47;4934034;29;20020;-75
2021/10/07 02:28:57;;;;;;;0.00;0.00;;;;;;;9.99;66.78;99624.41;4933349;29;20035;-75
2021/10/07 02:31:22;;;;;;;0.00;0.00;;;;;;;10.01;67.06;99626.81;4916851;29;20075;-76
2021/10/07 02:33:49;;;;;;;0.00;0.00;;;;;;;10.02;67.26;99621.25;4933436;29;20407;-76
2021/10/07 02:36:15;;;;;;;0.00;0.00;;;;;;;10.04;68.46;99627.13;4933894;29;20103;-75
2021/10/07 02:38:40;;;;;;;0.00;0.00;;;;;;;10.00;68.09;99623.34;4933787;29;20161;-75
2021/10/07 02:41:06;;;;;;;0.00;0.00;;;;;;;9.99;68.71;99629.75;4933281;29;20050;-75
2021/10/07 02:43:31;;;;;;;0.00;0.00;;;;;;;10.01;70.96;99632.16;4916732;29;20410;-76
2021/10/07 02:45:57;;;;;;;0.00;0.00;;;;;;;9.99;70.61;99634.31;4933934;29;20044;-76
2021/10/07 02:48:22;;;;;;;0.00;0.00;;;;;;;9.97;71.59;99629.19;4919628;29;20028;-77
2021/10/07 02:50:48;;;;;;;0.00;0.00;;;;;;;9.96;71.62;99626.78;4937364;29;20373;-76
2021/10/07 02:53:13;;;;;;;0.22;0.22;;;;;;;9.95;72.95;99615.31;4936943;29;20462;-76
2021/10/07 02:55:38;;;;;;;0.00;0.00;;;;;;;9.94;74.46;99619.84;4937339;29;20126;-77
2021/10/07 02:58:04;;;;;;;0.20;0.20;;;;;;;9.93;75.27;99617.44;4919935;29;20574;-75
2021/10/07 03:00:29;;;;;;;0.00;0.00;;;;;;;9.94;75.20;99619.84;4920240;29;20035;-77
2021/10/07 03:02:55;;;;;;;0.00;0.00;;;;;;;9.98;74.11;99620.13;4937376;29;20403;-78
2021/10/07 03:05:20;;;;;;;0.00;0.00;;;;;;;9.99;73.50;99611.06;4920160;29;20031;-82
2021/10/07 03:07:46;;;;;;;0.00;0.00;;;;;;;10.01;73.95;99613.47;4920258;29;20071;-87
2021/10/07 03:10:12;;;;;;;0.00;0.00;;;;;;;10.04;73.46;99602.28;4919857;29;20175;-75
2021/10/07 03:12:37;;;;;;;0.00;0.00;;;;;;;10.03;74.05;99590.78;4937328;29;20044;-77
2021/10/07 03:15:05;;;;;;;0.00;0.00;;;;;;;10.08;75.10;99593.47;4936547;29;20054;-77
2021/10/07 03:17:31;;;;;;;0.17;0.17;;;;;;;10.09;74.67;99584.41;4920129;29;20040;-78
2021/10/07 03:19:56;;;;;;;0.00;0.00;;;;;;;10.13;75.56;99581.19;4919597;29;20179;-77
2021/10/07 03:22:21;;;;;;;0.43;0.43;;;;;;;10.11;75.88;99576.13;4936855;29;20028;-77
2021/10/07 03:24:47;;;;;;;0.00;0.00;;;;;;;10.13;76.38;99587.38;4937098;29;20039;-77
2021/10/07 03:27:12;;;;;;;0.80;0.80;;;;;;;10.15;76.35;99587.09;4919509;29;20024;-77
2021/10/07 03:29:38;;;;;;;0.00;0.00;;;;;;;10.17;75.97;99580.44;4936683;29;20035;-78
2021/10/07 03:32:04;;;;;;;0.20;0.20;;;;;;;10.18;76.60;99567.84;4936176;29;20030;-76
2021/10/07 03:34:29;;;;;;;0.00;0.00;;;;;;;10.17;76.18;99569.72;4936777;29;20027;-78
2021/10/07 03:36:55;;;;;;;0.00;0.00;;;;;;;10.15;76.60;99571.84;4919248;29;20114;-77
2021/10/07 03:39:20;;;;;;;0.00;0.00;;;;;;;10.16;76.69;99576.13;4919674;29;20087;-79
2021/10/07 03:41:46;;;;;;;0.00;0.00;;;;;;;10.19;76.31;99582.84;4919510;29;20040;-75
2021/10/07 03:44:11;;;;;;;0.00;0.00;;;;;;;10.17;76.43;99575.09;4919121;29;20518;-77
2021/10/07 03:46:37;;;;;;;0.00;0.00;;;;;;;10.16;76.65;99584.16;4919366;29;20035;-78
2021/10/07 03:49:03;;;;;;;0.00;0.00;;;;;;;10.16;76.69;99583.38;4935790;29;20024;-75
2021/10/07 03:51:29;;;;;;;0.00;0.00;;;;;;;10.18;76.56;99583.88;4936202;29;20445;-76
2021/10/07 03:53:54;;;;;;;0.00;0.00;;;;;;;10.16;76.90;99581.50;4936535;29;20111;-77
2021/10/07 03:56:20;;;;;;;0.15;0.15;;;;;;;10.16;76.67;99588.72;4919211;29;20036;-78
2021/10/07 03:58:45;;;;;;;0.00;0.00;;;;;;;10.16;76.85;99586.03;4919221;29;20377;-76
2021/10/07 04:01:11;;;;;;;0.30;0.30;;;;;;;10.15;77.15;99584.44;4935920;29;20039;-75
2021/10/07 04:03:37;;;;;;;0.00;0.00;;;;;;;10.19;77.06;99582.84;4919028;29;20027;-75
2021/10/07 04:06:02;;;;;;;0.00;0.00;;;;;;;10.21;76.96;99575.38;4936007;29;20067;-76
2021/10/07 04:08:28;;;;;;;0.00;0.00;;;;;;;10.22;76.93;99564.41;4918970;29;20097;-76
2021/10/07 04:10:53;;;;;;;0.00;0.00;;;;;;;10.27;76.91;99573.53;4935858;29;20479;-77
2021/10/07 04:13:20;;;;;;;0.00;0.00;;;;;;;10.30;76.81;99570.31;4918784;29;20116;-76
2021/10/07 04:15:49;;;;;;;0.03;0.03;;;;;;;10.36;76.43;99569.28;4918348;29;20442;-74
2021/10/07 04:18:15;;;;;;;0.00;0.00;;;;;;;10.43;76.79;99567.19;4934584;29;20027;-78
2021/10/07 04:20:41;;;;;;;0.00;0.00;;;;;;;10.46;76.50;99569.34;4918150;29;20169;-73
2021/10/07 04:23:08;;;;;;;0.00;0.00;;;;;;;10.51;76.47;99563.19;4935226;29;20532;-75
2021/10/07 04:25:33;;;;;;;0.00;0.00;;;;;;;10.55;76.24;99562.41;4935025;29;20059;-74
2021/10/07 04:27:59;;;;;;;0.00;0.00;;;;;;;10.59;76.22;99561.91;4934219;29;20039;-77
2021/10/07 04:30:24;;;;;;;0.00;0.00;;;;;;;10.64;76.05;99561.91;4936360;29;20058;-75
2021/10/07 04:32:50;;;;;;;0.00;0.00;;;;;;;10.63;75.99;99560.31;4935204;29;20102;-75
2021/10/07 04:35:17;;;;;;;0.00;0.00;;;;;;;10.68;75.31;99569.16;4918033;29;20038;-77
2021/10/07 04:37:42;;;;;;;0.00;0.00;;;;;;;10.69;75.84;99561.91;4954348;29;20041;-75
2021/10/07 04:40:08;;;;;;;0.08;0.08;;;;;;;10.73;75.25;99557.66;4954027;29;20495;-76
2021/10/07 04:42:34;;;;;;;0.00;0.00;;;;;;;10.72;75.08;99558.72;4953791;29;20490;-75
2021/10/07 04:44:59;;;;;;;0.00;0.00;;;;;;;10.73;75.16;99561.13;4953875;29;20110;-76
2021/10/07 04:47:28;;;;;;;0.40;0.40;;;;;;;10.72;74.98;99554.16;4936761;29;20034;-75
2021/10/07 04:49:54;;;;;;;0.00;0.00;;;;;;;10.71;74.95;99559.78;4936939;29;20451;-75
2021/10/07 04:52:19;;;;;;;0.00;0.00;;;;;;;10.75;74.82;99565.44;4953489;29;20019;-76
2021/10/07 04:54:45;;;;;;;0.00;0.00;;;;;;;10.76;74.92;99562.47;4954441;29;20045;-76
2021/10/07 04:57:10;;;;;;;0.00;0.00;;;;;;;10.81;74.44;99567.84;4936718;29;20118;-78
2021/10/07 04:59:35;;;;;;;0.00;0.00;;;;;;;10.81;74.81;99562.47;4954447;29;20538;-77
2021/10/07 05:02:01;;;;;;;0.00;0.00;;;;;;;10.87;74.31;99563.31;4953622;29;20023;-77
2021/10/07 05:04:26;;;;;;;0.00;0.00;;;;;;;10.93;74.25;99569.47;4954071;29;20027;-77
2021/10/07 05:06:51;;;;;;;0.00;0.00;;;;;;;10.96;73.24;99564.41;4936692;29;20024;-77
2021/10/07 05:09:17;;;;;;;0.00;0.00;;;;;;;10.99;73.08;99571.88;4953314;28;20118;-77
2021/10/07 05:11:42;;;;;;;0.00;0.00;;;;;;;11.07;73.13;99570.56;4953451;29;20027;-77
2021/10/07 05:14:08;;;;;;;0.10;0.10;;;;;;;11.04;72.77;99561.19;4936463;29;20038;-77
2021/10/07 05:16:33;;;;;;;0.00;0.00;;;;;;;11.12;72.52;99569.75;4936079;29;20510;-77
2021/10/07 05:18:59;;;;;;;0.10;0.10;;;;;;;11.16;72.24;99574.31;4953592;29;20031;-77
2021/10/07 05:21:24;;;;;;;0.00;0.00;;;;;;;11.18;72.75;99564.16;4936522;29;20027;-77
2021/10/07 05:23:50;;;;;;;0.00;0.00;;;;;;;11.21;73.02;99566.28;4936479;29;20053;-77
2021/10/07 05:26:15;;;;;;;0.00;0.00;;;;;;;11.26;73.01;99562.81;4936300;29;20388;-77
2021/10/07 05:28:44;;;;;;;0.00;0.00;;;;;;;11.34;73.83;99561.50;4936369;29;20027;-78
2021/10/07 05:31:09;;;;;;;;;;;;;;;11.50;73.37;99567.63;4954002;29;20030;-77
2021/10/07 05:33:34;;;;;;;0.00;0.00;;;;;;;11.64;73.01;99575.91;4953504;29;19989;-77
2021/10/07 05:36:00;;;;;;;0.00;0.00;;;;;;;11.80;72.49;99574.00;4935926;29;20414;-77
2021/10/07 05:38:25;;;;;;;0.00;0.00;;;;;;;11.94;71.77;99582.31;4953142;29;20023;-75
2021/10/07 05:40:51;;;;;;;0.00;0.00;;;;;;;12.06;71.46;99573.97;4936193;29;20037;-75
2021/10/07 05:43:16;;;;;;;0.00;0.00;;;;;;;12.17;70.87;99578.25;4953449;29;20039;-76
2021/10/07 05:45:41;;;;;;;0.03;0.03;;;;;;;12.25;70.41;99580.34;4936175;29;20027;-76
2021/10/07 05:48:07;;;;;;;0.00;0.00;;;;;;;12.27;69.88;99572.06;4952905;29;20481;-76
2021/10/07 05:50:32;;;;;;;0.00;0.00;;;;;;;12.33;69.43;99573.63;4953388;29;20035;-76
2021/10/07 05:52:58;;;;;;;0.00;0.00;;;;;;;12.28;69.70;99571.78;4953009;29;20050;-77
2021/10/07 05:55:23;;;;;;;0.10;0.10;;;;;;;12.28;69.46;99579.81;4953073;29;20030;-77
2021/10/07 05:57:49;;;;;;;0.00;0.00;;;;;;;12.27;70.18;99580.88;4935920;29;20034;-77
2021/10/07 06:00:14;;;;;;;0.00;0.00;;;;;;;12.28;69.97;99590.53;4935925;29;20038;-76
2021/10/07 06:02:40;;;;;;;0.00;0.00;;;;;;;12.30;69.89;99601.81;4936189;29;20402;-76
2021/10/07 06:05:07;;;;;;;0.10;0.10;;;;;;;12.31;70.01;99602.59;4952936;29;20030;-76
2021/10/07 06:07:33;;;;;;;0.00;0.00;;;;;;;12.35;69.27;99600.19;4953445;29;20142;-77
2021/10/07 06:09:58;;;;;;;0.00;0.00;;;;;;;12.36;69.86;99593.75;4952868;29;20526;-76
2021/10/07 06:12:24;;;;;;;0.20;0.20;;;;;;;12.39;69.27;99593.19;4953107;29;20027;-76
2021/10/07 06:14:50;;;;;;;0.00;0.00;;;;;;;12.43;68.89;99600.41;4953118;29;20483;-77
2021/10/07 06:17:15;;;;;;;0.00;0.00;;;;;;;12.44;69.46;99603.91;4935726;29;20030;-76
2021/10/07 06:19:43;;;;;;;0.00;0.00;;;;;;;12.41;69.42;99605.22;4953073;29;20038;-77
2021/10/07 06:22:09;;;;;;;0.00;0.00;;;;;;;12.42;69.38;99601.47;4955306;28;20434;-77
2021/10/07 06:24:35;;;;;;;0.20;0.20;;;;;;;12.43;69.28;99594.25;4956752;29;20031;-77
2021/10/07 06:27:01;;;;;;;0.00;0.00;;;;;;;12.44;69.37;99595.88;4939642;29;20099;-76
2021/10/07 06:29:27;;;;;;;0.00;0.00;;;;;;;12.40;69.07;99587.56;4939686;29;20618;-76
2021/10/07 06:31:52;;;;;;;0.38;0.38;;;;;;;12.39;69.70;99596.69;4939441;29;20131;-76
2021/10/07 06:34:18;;;;;;;0.08;0.08;;;;;;;12.37;69.75;99584.63;4956267;29;20102;-76
2021/10/07 06:36:43;;;;;;;0.00;0.00;;;;;;;12.38;69.73;99591.56;4956824;29;20023;-76
2021/10/07 06:39:09;;;;;;;0.00;0.00;;;;;;;12.39;69.64;99602.03;4956853;29;20108;-76
2021/10/07 06:41:35;;;;;;;0.00;0.00;;;;;;;12.41;69.73;99605.22;4956786;29;20032;-76
2021/10/07 06:44:00;;;;;;;0.00;0.00;;;;;;;12.43;70.14;99600.41;4956707;29;20039;-76
2021/10/07 06:46:27;;;;;;;0.00;0.00;;;;;;;12.49;69.71;99607.34;4939233;29;20399;-76
2021/10/07 06:48:55;;;;;;;0.00;0.00;;;;;;;12.44;69.49;99596.66;4956535;29;20063;-76
2021/10/07 06:51:25;;;;;;;0.00;0.00;;;;;;;12.46;69.64;99607.91;4956346;29;20039;-76
2021/10/07 06:53:55;;;;;;;0.05;0.05;;;;;;;12.42;69.96;99606.84;4956472;29;20039;-76
2021/10/07 06:56:22;;;;;;;0.00;0.00;;;;;;;12.40;69.33;99600.16;4956034;29;20086;-76
2021/10/07 06:58:52;;;;;;;0.00;0.00;;;;;;;12.46;69.92;99615.97;4956534;29;20039;-75
2021/10/07 07:01:27;;;;;;;0.00;0.00;;;;;;;12.47;69.72;99617.56;4956138;29;20035;-76
2021/10/07 07:03:55;;;;;;;0.00;0.00;;;;;;;12.49;69.53;99617.28;4956394;29;20077;-76
2021/10/07 07:06:21;;;;;;;0.25;0.25;;;;;;;12.52;69.82;99605.22;4938737;29;20065;-76
2021/10/07 07:08:46;;;;;;;0.00;0.00;;;;;;;12.51;69.97;99607.06;4938779;29;20066;-75
2021/10/07 07:11:12;;;;;;;0.20;0.20;;;;;;;12.52;69.71;99608.69;4955673;29;20053;-77
2021/10/07 07:13:38;;;;;;;0.00;0.00;;;;;;;12.54;70.13;99605.75;4956556;29;20039;-77
2021/10/07 07:16:04;;;;;;;0.63;0.63;;;;;;;12.56;69.71;99601.72;4955275;29;20057;-78
2021/10/07 07:18:29;;;;;;;0.00;0.00;;;;;;;12.59;69.84;99595.78;4956065;29;20038;-78
2021/10/07 07:20:55;;;;;;;0.20;0.20;;;;;;;12.59;69.91;99606.50;4955768;29;20115;-77
2021/10/07 07:23:20;;;;;;;0.00;0.00;;;;;;;12.58;69.62;99596.84;4938558;29;20031;-77
2021/10/07 07:25:46;;;;;;;0.00;0.00;;;;;;;12.62;69.85;99597.09;4956286;29;20038;-77
2021/10/07 07:28:11;;;;;;;0.00;0.00;;;;;;;12.59;70.28;99593.09;4955972;29;20490;-78
2021/10/07 07:30:37;;;;;;;0.30;0.30;;;;;;;12.59;69.98;99593.09;4938665;29;20035;-78
2021/10/07 07:33:03;;;;;;;0.05;0.05;;;;;;;12.58;69.80;99593.38;4937930;29;20035;-78
2021/10/07 07:35:32;;;;;;;0.10;0.10;;;;;;;12.60;70.22;99585.88;4938447;29;20046;-77
2021/10/07 07:38:06;;;;;;;0.00;0.00;;;;;;;12.64;69.69;99587.69;4955504;29;20395;-78
2021/10/07 07:40:33;;;;;;;0.10;0.10;;;;;;;12.65;70.16;99581.25;4938592;29;20129;-77
2021/10/07 07:42:59;;;;;;;0.00;0.00;;;;;;;12.73;69.74;99589.81;4955401;29;20035;-78
2021/10/07 07:45:24;;;;;;;0.32;0.32;;;;;;;12.78;70.45;99590.59;4938019;29;20832;-77
2021/10/07 07:47:51;;;;;;;2.83;1.02;;;;;;;12.83;69.55;99595.13;4955785;29;20038;-78
2021/10/07 07:50:21;;;;;;;0.45;0.45;;;;;;;12.87;69.43;99601.53;4938082;29;20079;-78
2021/10/07 07:52:47;;;;;;;0.00;0.00;;;;;;;12.89;69.37;99604.75;4955353;29;20055;-77
2021/10/07 07:55:13;;;;;;;0.00;0.00;;;;;;;12.93;69.58;99610.38;4954948;29;20086;-77
2021/10/07 07:57:38;;;;;;;0.43;0.43;;;;;;;13.01;69.43;99614.34;4955161;29;20094;-77
2021/10/07 08:00:07;;;;;;;0.22;0.22;;;;;;;13.10;68.98;99618.06;4955196;29;20517;-77
2021/10/07 08:02:33;;;;;;;0.10;0.10;;;;;;;13.15;68.99;99609.19;4938119;29;20023;-77
2021/10/07 08:04:58;;;;;;;0.00;0.00;;;;;;;13.27;68.75;99615.78;4938123;29;20036;-77
2021/10/07 08:07:24;;;;;;;0.00;0.00;;;;;;;13.37;68.79;99601.47;4955126;29;20482;-76
2021/10/07 08:09:49;;;;;;;0.00;0.00;;;;;;;13.44;67.76;99603.88;4955295;29;20475;-77
2021/10/07 08:12:16;;;;;;;0.25;0.25;;;;;;;13.49;68.02;99617.28;4937638;29;20406;-77
2021/10/07 08:14:46;;;;;;;0.52;0.52;;;;;;;13.59;67.68;99616.38;4954957;29;20031;-77
2021/10/07 08:17:12;;;;;;;0.00;0.00;;;;;;;13.64;67.54;99620.91;4937670;29;20038;-77
2021/10/07 08:19:38;;;;;;;0.10;0.10;;;;;;;13.69;67.35;99616.28;4954761;29;20049;-76
2021/10/07 08:22:04;;;;;;;0.00;0.00;;;;;;;13.73;66.97;99606.59;4955277;29;20106;-77
2021/10/07 08:24:32;;;;;;;0.05;0.05;;;;;;;13.77;66.62;99620.25;4937452;29;20027;-77
2021/10/07 08:26:57;;;;;;;0.40;0.40;;;;;;;13.77;66.65;99615.69;4954831;29;20038;-77
2021/10/07 08:29:23;;;;;;;0.08;0.08;;;;;;;13.87;66.63;99617.47;4954194;29;20023;-77
2021/10/07 08:31:48;;;;;;;0.00;0.00;;;;;;;13.97;66.35;99618.47;4937489;29;20031;-77
2021/10/07 08:34:14;;;;;;;0.20;0.20;;;;;;;14.03;65.89;99611.94;4954081;29;20090;-77
2021/10/07 08:36:43;;;;;;;0.05;0.05;;;;;;;14.09;66.06;99602.75;4954884;29;20046;-77
2021/10/07 08:39:10;;;;;;;0.00;0.00;;;;;;;14.17;65.44;99610.19;4954345;29;20030;-77
2021/10/07 08:41:36;;;;;;;0.30;0.30;;;;;;;14.22;64.94;99612.81;4937297;29;20035;-77
2021/10/07 08:44:02;;;;;;;0.77;0.77;;;;;;;14.28;65.01;99600.13;4954054;28;20031;-77
2021/10/07 08:46:28;;;;;;;0.00;0.00;;;;;;;14.33;64.77;99602.75;4953762;29;20097;-76
2021/10/07 08:48:54;;;;;;;0.00;0.00;;;;;;;14.43;64.50;99615.28;4937178;29;20384;-77
2021/10/07 08:51:19;;;;;;;0.00;0.00;;;;;;;14.47;64.21;99605.53;4954206;29;20407;-76
2021/10/07 08:53:46;;;;;;;0.00;0.00;;;;;;;14.48;63.78;99596.38;4937126;29;20027;-77
2021/10/07 08:56:11;;;;;;;0.10;0.10;;;;;;;14.55;63.84;99598.72;4954018;29;20546;-77
2021/10/07 08:58:37;;;;;;;0.00;0.00;;;;;;;14.59;63.43;99594.34;4936885;29;20085;-77
2021/10/07 09:01:05;;;;;;;0.00;0.00;;;;;;;14.66;63.57;99604.78;4954121;29;20027;-76
2021/10/07 09:03:30;;;;;;;0.20;0.20;;;;;;;14.67;62.73;99596.44;4936649;29;20034;-77
2021/10/07 09:06:08;;;;;;;6.35;0.85;;;;;;;14.74;62.96;99596.06;4954313;29;20043;-76
2021/10/07 09:08:45;;;;;;;0.10;0.10;;;;;;;14.67;62.50;99591.06;4953750;29;20027;-77
2021/10/07 09:11:23;;;;;;;0.57;0.50;;;;;;;14.67;62.64;99592.94;4936574;29;20457;-77
2021/10/07 09:13:48;;;;;;;0.20;0.20;;;;;;;14.65;62.58;99604.00;4954220;29;20032;-76
2021/10/07 09:16:14;;;;;;;0.10;0.10;;;;;;;14.63;62.56;99595.38;4953480;29;20054;-76
2021/10/07 09:18:39;;;;;;;0.08;0.08;;;;;;;14.62;62.91;99593.75;4954053;29;20027;-77
2021/10/07 09:21:04;;;;;;;0.00;0.00;;;;;;;14.67;62.93;99599.13;4953399;29;20027;-76
2021/10/07 09:23:34;;;;;;;0.03;0.03;;;;;;;14.68;62.80;99589.97;4953845;29;20382;-76
2021/10/07 09:26:09;;;;;;;0.10;0.10;;;;;;;14.66;63.04;99567.09;4936465;29;20035;-76
2021/10/07 09:28:57;;;;;;;0.00;0.00;;;;;;;14.68;62.98;99573.00;4936246;29;20031;-77
2021/10/07 09:31:24;;;;;;;;;;;;;;;14.70;62.96;99578.91;4954100;29;20474;-77
2021/10/07 09:33:53;;;;;;;8.02;1.98;;;;;;;14.72;63.01;99577.50;4953568;29;19918;-77
2021/10/07 09:36:19;;;;;;;;;;;;;;;14.72;62.77;99574.81;4953589;29;20028;-77
2021/10/07 09:38:50;;;;;;;0.10;0.10;;;;;;;14.72;63.44;99588.28;4936318;29;19970;-77
2021/10/07 09:41:31;;;;;;;0.00;0.00;;;;;;;14.67;63.35;99574.91;4953462;29;20027;-77
2021/10/07 09:43:59;;;;;;;0.17;0.17;;;;;;;14.69;64.12;99574.59;4936141;29;20031;-77
2021/10/07 09:46:49;;;;;;;0.10;0.10;;;;;;;14.65;64.98;99562.78;4953112;29;20550;-77
2021/10/07 09:49:32;;;;;;;1.08;0.55;;;;;;;14.64;65.08;99572.75;4952886;29;20023;-77
2021/10/07 09:51:58;;;;;;;0.10;0.10;;;;;;;14.60;65.32;99597.84;4936099;29;20027;-76
2021/10/07 09:54:27;;;;;;;0.00;0.00;;;;;;;14.58;64.75;99584.66;4935924;29;20110;-76
2021/10/07 09:56:56;;;;;;;0.10;0.10;;;;;;;14.50;64.81;99574.53;4952995;28;20035;-76
2021/10/07 09:59:22;;;;;;;0.22;0.20;;;;;;;14.48;64.86;99566.75;4935846;29;20027;-76
2021/10/07 10:01:49;;;;;;;0.10;0.10;;;;;;;14.47;65.18;99577.81;4953254;29;20050;-77
2021/10/07 10:04:15;;;;;;;0.10;0.10;;;;;;;14.48;65.27;99566.75;4952925;29;20110;-76
2021/10/07 10:06:40;;;;;;;0.00;0.00;;;;;;;14.54;65.19;99552.16;4953356;29;20505;-76
2021/10/07 10:09:07;;;;;;;0.03;0.03;;;;;;;14.60;65.04;99552.06;4953123;29;20027;-76
2021/10/07 10:11:32;;;;;;;0.20;0.20;;;;;;;14.54;64.65;99568.28;4952379;29;20048;-76
2021/10/07 10:13:58;;;;;;;0.00;0.00;;;;;;;14.53;64.78;99552.44;4935885;29;20031;-75
2021/10/07 10:16:24;;;;;;;0.00;0.00;;;;;;;14.61;64.98;99569.81;4935259;29;20070;-76
2021/10/07 10:19:02;;;;;;;3.10;0.87;;;;;;;14.56;65.09;99557.22;4952927;29;20150;-75
2021/10/07 10:21:33;;;;;;;0.40;0.40;;;;;;;14.64;65.06;99563.88;4952822;29;20035;-75
2021/10/07 10:23:59;;;;;;;0.10;0.10;;;;;;;14.69;65.31;99561.13;4935687;29;20114;-78
2021/10/07 10:26:25;;;;;;;0.00;0.00;;;;;;;14.72;65.17;99572.13;4935500;29;20038;-76
2021/10/07 10:28:54;;;;;;;0.00;0.00;;;;;;;14.68;65.30;99564.91;4953108;29;20405;-78
2021/10/07 10:31:31;;;;;;;0.00;0.00;;;;;;;14.67;65.42;99571.38;4935446;29;20402;-77
2021/10/07 10:34:07;;;;;;;0.40;0.40;;;;;;;14.64;65.85;99556.59;4952363;29;20019;-77
2021/10/07 10:36:40;;;;;;;0.10;0.10;;;;;;;14.65;65.91;99560.09;4952586;29;20038;-77
2021/10/07 10:39:10;;;;;;;0.00;0.00;;;;;;;14.62;66.09;99550.69;4935669;29;20486;-75
2021/10/07 10:41:43;;;;;;;0.52;0.52;;;;;;;14.61;65.94;99551.00;4952603;29;20036;-76
2021/10/07 10:44:26;;;;;;;0.00;0.00;;;;;;;14.66;66.14;99554.44;4935661;29;20038;-77
2021/10/07 10:47:07;;;;;;;0.40;0.40;;;;;;;14.67;65.62;99549.84;4952503;29;20042;-77
2021/10/07 10:49:53;;;;;;;0.00;0.00;;;;;;;14.68;65.35;99551.47;4952656;29;20032;-75
2021/10/07 10:52:28;;;;;;;0.28;0.28;;;;;;;14.63;65.45;99538.03;4953007;29;20074;-78
2021/10/07 10:55:14;;;;;;;0.00;0.00;;;;;;;14.67;65.29;99544.47;4952790;29;20027;-77
2021/10/07 10:57:44;;;;;;;0.10;0.10;;;;;;;14.69;65.22;99520.75;4952910;29;20110;-75
2021/10/07 11:00:28;;;;;;;0.32;0.32;;;;;;;14.69;65.23;99540.41;4952795;29;20114;-78
2021/10/07 11:03:14;;;;;;;0.80;0.80;;;;;;;14.61;65.65;99551.81;4952828;29;20043;-77
2021/10/07 11:06:01;;;;;;;0.08;0.08;;;;;;;14.53;66.39;99563.22;4952753;29;20023;-77
2021/10/07 11:08:27;;;;;;;0.10;0.10;;;;;;;14.51;66.39;99568.91;4953547;28;20482;-76
2021/10/07 11:10:55;;;;;;;0.00;0.00;;;;;;;14.41;66.82;99544.78;4938944;29;20027;-77
2021/10/07 11:13:23;;;;;;;0.10;0.10;;;;;;;14.40;67.70;99538.63;4955846;29;20039;-77
2021/10/07 11:15:57;;;;;;;0.03;0.03;;;;;;;14.45;67.89;99523.47;4956116;29;20047;-76
2021/10/07 11:18:28;;;;;;;0.00;0.00;;;;;;;14.46;67.60;99528.56;4938542;29;20053;-76
2021/10/07 11:21:17;;;;;;;0.00;0.00;;;;;;;14.41;68.08;99548.28;4938756;29;20031;-76
2021/10/07 11:23:50;;;;;;;0.80;0.45;;;;;;;14.41;68.55;99529.47;4938942;29;20557;-75
2021/10/07 11:26:16;;;;;;;0.00;0.00;;;;;;;14.36;68.86;99552.94;4955647;29;20062;-76
2021/10/07 11:28:44;;;;;;;0.10;0.10;;;;;;;14.34;69.34;99522.81;4955855;29;20104;-76
2021/10/07 11:31:15;;;;;;;0.25;0.25;;;;;;;14.26;69.67;99540.41;4956095;29;20102;-76
2021/10/07 11:33:43;;;;;;;0.00;0.00;;;;;;;14.23;69.46;99528.34;4938589;29;20042;-76
2021/10/07 11:36:17;;;;;;;0.10;0.10;;;;;;;14.20;69.59;99531.59;4938567;29;20034;-75
2021/10/07 11:38:44;;;;;;;0.10;0.08;;;;;;;14.20;69.59;99539.66;4938464;29;20502;-76
2021/10/07 11:41:13;;;;;;;0.13;0.13;;;;;;;14.21;69.67;99530.50;4938540;29;20023;-76